createdAt,value
2023-12-26T00:00:15.046Z,5.31
2023-12-26T00:03:08.294Z,5.32
2023-12-26T00:05:41.161Z,5.31
2023-12-26T00:08:13.118Z,5.31
2023-12-26T00:10:45.013Z,5.30
2023-12-26T00:13:16.720Z,5.31
2023-12-26T00:15:49.003Z,5.33
2023-12-26T00:18:21.474Z,5.36
2023-12-26T00:20:54.635Z,5.38
2023-12-26T00:23:26.557Z,5.38
2023-12-26T00:25:59.648Z,5.38
2023-12-26T00:28:31.432Z,5.37
2023-12-26T00:31:03.338Z,5.35
2023-12-26T00:33:35.652Z,5.34
2023-12-26T00:36:08.791Z,5.34
2023-12-26T00:38:40.714Z,5.33
2023-12-26T00:41:12.623Z,5.33
2023-12-26T00:43:44.495Z,5.35
2023-12-26T00:46:16.657Z,5.35
2023-12-26T00:48:48.786Z,5.36
2023-12-26T00:51:20.585Z,5.39
2023-12-26T00:53:52.344Z,5.41
2023-12-26T00:56:24.130Z,5.41
2023-12-26T00:58:55.898Z,5.40
2023-12-26T01:01:27.724Z,5.40
2023-12-26T01:03:59.645Z,5.38
2023-12-26T01:06:31.530Z,5.35
2023-12-26T01:09:03.938Z,5.33
2023-12-26T01:11:35.835Z,5.31
2023-12-26T01:14:07.957Z,5.29
2023-12-26T01:16:40.769Z,5.27
2023-12-26T01:19:12.671Z,5.27
2023-12-26T01:21:44.636Z,5.24
2023-12-26T01:24:16.681Z,5.23
2023-12-26T01:26:48.504Z,5.22
2023-12-26T01:29:20.298Z,5.23
2023-12-26T01:31:52.147Z,5.25
2023-12-26T01:34:24.045Z,5.27
2023-12-26T01:36:55.950Z,5.29
2023-12-26T01:39:29.372Z,5.30
2023-12-26T01:42:01.337Z,5.30
2023-12-26T01:44:33.626Z,5.31
2023-12-26T01:47:06.835Z,5.31
2023-12-26T01:49:38.721Z,5.32
2023-12-26T01:52:12.239Z,5.33
2023-12-26T01:54:44.034Z,5.36
2023-12-26T01:57:15.855Z,5.36
2023-12-26T01:59:49.699Z,5.38
2023-12-26T02:02:22.577Z,5.39
2023-12-26T02:04:55.294Z,5.40
2023-12-26T02:07:27.315Z,5.42
2023-12-26T02:10:00.490Z,5.45
2023-12-26T02:12:32.239Z,5.48
2023-12-26T02:15:05.075Z,5.50
2023-12-26T02:17:37.670Z,5.52
2023-12-26T02:20:11.333Z,5.53
2023-12-26T02:22:46.897Z,5.54
2023-12-26T02:25:21.379Z,5.55
2023-12-26T02:27:53.284Z,5.56
2023-12-26T02:30:26.088Z,5.57
2023-12-26T02:32:59.018Z,5.56
2023-12-26T02:35:31.592Z,5.56
2023-12-26T02:38:04.613Z,5.56
2023-12-26T02:40:36.300Z,5.56
2023-12-26T02:43:08.152Z,5.56
2023-12-26T02:45:39.830Z,5.55
2023-12-26T02:48:11.957Z,5.54
2023-12-26T02:50:44.090Z,5.54
2023-12-26T02:53:16.402Z,5.56
2023-12-26T02:55:49.479Z,5.57
2023-12-26T02:58:21.246Z,5.57
2023-12-26T03:00:53.078Z,5.57
2023-12-26T03:03:24.937Z,5.56
2023-12-26T03:05:57.389Z,5.55
2023-12-26T03:08:29.224Z,5.54
2023-12-26T03:11:01.403Z,5.53
2023-12-26T03:13:33.211Z,5.53
2023-12-26T03:16:05.077Z,5.52
2023-12-26T03:18:38.218Z,5.50
2023-12-26T03:21:10.133Z,5.50
2023-12-26T03:23:42.398Z,5.49
2023-12-26T03:26:14.244Z,5.50
2023-12-26T03:28:46.420Z,5.49
2023-12-26T03:31:18.349Z,5.49
2023-12-26T03:33:50.159Z,5.50
2023-12-26T03:36:22.046Z,5.49
2023-12-26T03:38:53.790Z,5.50
2023-12-26T03:41:25.612Z,5.51
2023-12-26T03:43:57.335Z,5.51
2023-12-26T03:46:29.105Z,5.51
2023-12-26T03:49:00.897Z,5.52
2023-12-26T03:51:32.787Z,5.51
2023-12-26T03:54:05.341Z,5.52
2023-12-26T03:56:37.441Z,5.52
2023-12-26T03:59:09.448Z,5.53
2023-12-26T04:01:41.319Z,5.53
2023-12-26T04:04:13.704Z,5.52
2023-12-26T04:06:45.820Z,5.51
2023-12-26T04:09:19.855Z,5.50
2023-12-26T04:11:51.769Z,5.48
2023-12-26T04:14:23.730Z,5.47
2023-12-26T04:16:55.577Z,5.46
2023-12-26T04:19:28.027Z,5.44
2023-12-26T04:21:59.873Z,5.44
2023-12-26T04:24:31.705Z,5.42
2023-12-26T04:27:03.544Z,5.41
2023-12-26T04:29:36.125Z,5.40
2023-12-26T04:32:09.022Z,5.41
2023-12-26T04:34:42.705Z,5.41
2023-12-26T04:37:14.500Z,5.41
2023-12-26T04:39:46.476Z,5.42
2023-12-26T04:42:18.564Z,5.42
2023-12-26T04:44:50.632Z,5.43
2023-12-26T04:47:22.759Z,5.44
2023-12-26T04:49:54.852Z,5.44
2023-12-26T04:52:26.633Z,5.43
2023-12-26T04:54:58.341Z,5.44
2023-12-26T04:57:30.148Z,5.43
2023-12-26T05:00:02.135Z,5.43
2023-12-26T05:02:33.982Z,5.43
2023-12-26T05:05:06.298Z,5.42
2023-12-26T05:07:38.164Z,5.42
2023-12-26T05:10:11.154Z,5.42
2023-12-26T05:12:42.958Z,5.43
2023-12-26T05:15:14.874Z,5.43
2023-12-26T05:17:46.982Z,5.43
2023-12-26T05:20:29.748Z,5.41
2023-12-26T05:23:03.188Z,5.41
2023-12-26T05:25:34.952Z,5.39
2023-12-26T05:28:07.092Z,5.39
2023-12-26T05:30:39.091Z,5.38
2023-12-26T05:33:10.986Z,5.38
2023-12-26T05:35:43.302Z,5.37
2023-12-26T05:38:15.027Z,5.37
2023-12-26T05:40:46.848Z,5.37
2023-12-26T05:43:18.700Z,5.37
2023-12-26T05:45:50.737Z,5.36
2023-12-26T05:48:22.884Z,5.35
2023-12-26T05:50:54.874Z,5.34
2023-12-26T05:53:30.629Z,5.33
2023-12-26T05:56:02.489Z,5.34
2023-12-26T05:58:34.324Z,5.34
2023-12-26T06:01:11.163Z,5.35
2023-12-26T06:03:43.018Z,5.35
2023-12-26T06:06:15.236Z,5.37
2023-12-26T06:08:47.526Z,5.39
2023-12-26T06:11:19.287Z,5.41
2023-12-26T06:13:50.969Z,5.44
2023-12-26T06:16:22.843Z,5.48
2023-12-26T06:18:55.594Z,5.52
2023-12-26T06:21:27.970Z,5.58
2023-12-26T06:23:59.712Z,5.63
2023-12-26T06:26:31.485Z,5.69
2023-12-26T06:29:03.276Z,5.75
2023-12-26T06:31:34.935Z,5.81
2023-12-26T06:34:06.981Z,5.86
2023-12-26T06:36:38.863Z,5.90
2023-12-26T06:39:12.971Z,5.95
2023-12-26T06:41:45.305Z,6.00
2023-12-26T06:44:18.075Z,6.05
2023-12-26T06:46:49.869Z,6.10
2023-12-26T06:49:22.219Z,6.14
2023-12-26T06:51:54.146Z,6.18
2023-12-26T06:54:25.999Z,6.22
2023-12-26T06:56:57.746Z,6.26
2023-12-26T06:59:29.667Z,6.29
2023-12-26T07:02:01.629Z,6.34
2023-12-26T07:04:33.414Z,6.38
2023-12-26T07:07:05.241Z,6.42
2023-12-26T07:09:36.928Z,6.46
2023-12-26T07:12:09.994Z,6.50
2023-12-26T07:14:41.849Z,6.53
2023-12-26T07:17:13.618Z,6.56
2023-12-26T07:19:45.497Z,6.59
2023-12-26T07:22:17.661Z,6.61
2023-12-26T07:24:49.484Z,6.65
2023-12-26T07:27:21.226Z,6.67
2023-12-26T07:29:53.137Z,6.69
2023-12-26T07:32:25.224Z,6.72
2023-12-26T07:34:57.679Z,6.75
2023-12-26T07:37:29.364Z,6.77
2023-12-26T07:40:01.176Z,6.78
2023-12-26T07:42:33.319Z,6.80
2023-12-26T07:45:05.988Z,6.81
2023-12-26T07:47:37.924Z,6.83
2023-12-26T07:50:11.056Z,6.85
2023-12-26T07:52:43.126Z,6.87
2023-12-26T07:55:17.497Z,6.89
2023-12-26T07:57:50.044Z,6.91
2023-12-26T08:00:22.473Z,6.94
2023-12-26T08:02:56.120Z,6.96
2023-12-26T08:05:28.292Z,6.97
2023-12-26T08:08:00.078Z,6.99
2023-12-26T08:10:32.117Z,7.02
2023-12-26T08:13:03.945Z,7.05
2023-12-26T08:15:35.742Z,7.07
2023-12-26T08:18:09.405Z,7.10
2023-12-26T08:20:41.432Z,7.13
2023-12-26T08:23:13.548Z,7.16
2023-12-26T08:25:45.411Z,7.19
2023-12-26T08:28:17.285Z,7.23
2023-12-26T08:30:49.261Z,7.28
2023-12-26T08:33:22.401Z,7.33
2023-12-26T08:35:54.294Z,7.38
2023-12-26T08:38:26.276Z,7.43
2023-12-26T08:40:58.096Z,7.50
2023-12-26T08:43:30.893Z,7.58
2023-12-26T08:46:02.906Z,7.65
2023-12-26T08:48:34.949Z,7.74
2023-12-26T08:51:07.635Z,7.85
2023-12-26T08:53:39.339Z,7.93
2023-12-26T08:56:11.229Z,8.02
2023-12-26T08:58:43.065Z,8.12
2023-12-26T09:01:15.667Z,8.20
2023-12-26T09:03:47.521Z,8.29
2023-12-26T09:06:19.603Z,8.37
2023-12-26T09:08:51.418Z,8.45
2023-12-26T09:11:23.265Z,8.51
2023-12-26T09:13:54.960Z,8.57
2023-12-26T09:16:26.740Z,8.62
2023-12-26T09:18:59.106Z,8.66
2023-12-26T09:21:30.967Z,8.73
2023-12-26T09:24:02.849Z,8.79
2023-12-26T09:26:34.781Z,8.83
2023-12-26T09:29:06.648Z,8.88
2023-12-26T09:31:38.474Z,8.93
2023-12-26T09:34:11.192Z,8.98
2023-12-26T09:36:43.577Z,9.05
2023-12-26T09:39:15.747Z,9.10
2023-12-26T09:41:50.226Z,9.14
2023-12-26T09:44:22.169Z,9.19
2023-12-26T09:46:53.874Z,9.24
2023-12-26T09:49:28.992Z,9.27
2023-12-26T09:52:03.577Z,9.32
2023-12-26T09:54:35.758Z,9.34
2023-12-26T09:57:08.030Z,9.35
2023-12-26T09:59:41.516Z,9.37
2023-12-26T10:02:16.010Z,9.38
2023-12-26T10:04:48.070Z,9.37
2023-12-26T10:07:20.426Z,9.38
2023-12-26T10:09:52.376Z,9.38
2023-12-26T10:12:31.675Z,9.37
2023-12-26T10:15:05.527Z,9.37
2023-12-26T10:17:37.880Z,9.37
2023-12-26T10:20:13.604Z,9.38
2023-12-26T10:22:46.581Z,9.39
2023-12-26T10:25:18.494Z,9.40
2023-12-26T10:27:59.270Z,9.42
2023-12-26T10:30:31.060Z,9.42
2023-12-26T10:33:04.438Z,9.44
2023-12-26T10:35:36.644Z,9.44
2023-12-26T10:38:12.164Z,9.45
2023-12-26T10:40:43.983Z,9.46
2023-12-26T10:43:16.082Z,9.46
2023-12-26T10:45:48.457Z,9.46
2023-12-26T10:48:22.071Z,9.46
2023-12-26T10:50:55.677Z,9.46
2023-12-26T10:53:33.602Z,9.47
2023-12-26T10:56:05.956Z,9.47
2023-12-26T10:58:38.834Z,9.46
2023-12-26T11:01:11.153Z,9.45
2023-12-26T11:03:44.026Z,9.45
2023-12-26T11:06:18.463Z,9.42
2023-12-26T11:08:52.057Z,9.41
2023-12-26T11:11:24.085Z,9.41
2023-12-26T11:13:56.045Z,9.40
2023-12-26T11:16:27.870Z,9.38
2023-12-26T11:19:00.153Z,9.37
2023-12-26T11:21:33.024Z,9.38
2023-12-26T11:24:05.680Z,9.38
2023-12-26T11:26:38.309Z,9.38
2023-12-26T11:29:10.726Z,9.38
2023-12-26T11:31:42.518Z,9.35
2023-12-26T11:34:16.391Z,9.34
2023-12-26T11:36:50.070Z,9.33
2023-12-26T11:39:21.947Z,9.31
2023-12-26T11:41:54.007Z,9.31
2023-12-26T11:44:26.168Z,9.33
2023-12-26T11:46:57.958Z,9.36
2023-12-26T11:49:29.680Z,9.38
2023-12-26T11:52:02.747Z,9.41
2023-12-26T11:54:34.727Z,9.44
2023-12-26T11:57:06.591Z,9.46
2023-12-26T11:59:38.751Z,9.45
2023-12-26T12:02:10.500Z,9.45
2023-12-26T12:04:42.232Z,9.45
2023-12-26T12:07:16.969Z,9.45
2023-12-26T12:09:48.731Z,9.44
2023-12-26T12:12:20.503Z,9.45
2023-12-26T12:14:58.981Z,9.46
2023-12-26T12:17:31.103Z,9.48
2023-12-26T12:20:03.056Z,9.50
2023-12-26T12:22:34.955Z,9.51
2023-12-26T12:25:06.775Z,9.51
2023-12-26T12:27:38.580Z,9.52
2023-12-26T12:30:10.754Z,9.50
2023-12-26T12:32:42.725Z,9.49
2023-12-26T12:35:16.574Z,9.47
2023-12-26T12:37:49.915Z,9.46
2023-12-26T12:40:21.857Z,9.44
2023-12-26T12:42:55.105Z,9.44
2023-12-26T12:45:26.964Z,9.42
2023-12-26T12:47:59.299Z,9.41
2023-12-26T12:50:32.643Z,9.40
2023-12-26T12:53:04.546Z,9.37
2023-12-26T12:55:36.310Z,9.36
2023-12-26T12:58:08.286Z,9.35
2023-12-26T13:00:40.110Z,9.33
2023-12-26T13:03:21.881Z,9.32
2023-12-26T13:06:00.519Z,9.30
2023-12-26T13:08:33.060Z,9.29
2023-12-26T13:11:05.525Z,9.29
2023-12-26T13:13:38.309Z,9.30
2023-12-26T13:16:10.383Z,9.30
2023-12-26T13:18:42.286Z,9.28
2023-12-26T13:21:19.229Z,9.27
2023-12-26T13:23:51.042Z,9.27
2023-12-26T13:26:22.876Z,9.26
2023-12-26T13:28:54.690Z,9.26
2023-12-26T13:31:26.550Z,9.25
2023-12-26T13:34:01.194Z,9.23
2023-12-26T13:36:33.194Z,9.21
2023-12-26T13:39:05.226Z,9.22
2023-12-26T13:41:37.015Z,9.18
2023-12-26T13:44:15.229Z,9.17
2023-12-26T13:46:47.263Z,9.15
2023-12-26T13:49:19.298Z,9.11
2023-12-26T13:51:52.339Z,9.09
2023-12-26T13:54:24.131Z,9.08
2023-12-26T13:56:56.246Z,9.09
2023-12-26T13:59:28.014Z,9.08
2023-12-26T14:01:59.912Z,9.06
2023-12-26T14:04:31.871Z,9.04
2023-12-26T14:07:04.278Z,9.02
2023-12-26T14:09:36.256Z,9.00
2023-12-26T14:12:08.627Z,9.01
2023-12-26T14:14:40.356Z,9.01
2023-12-26T14:17:12.148Z,9.02
2023-12-26T14:19:43.962Z,9.02
2023-12-26T14:22:15.717Z,9.01
2023-12-26T14:24:47.404Z,9.01
2023-12-26T14:27:19.251Z,8.99
2023-12-26T14:29:51.178Z,8.97
2023-12-26T14:32:23.516Z,8.97
2023-12-26T14:34:56.419Z,8.95
2023-12-26T14:37:28.800Z,8.93
2023-12-26T14:40:00.909Z,8.88
2023-12-26T14:42:32.846Z,8.86
2023-12-26T14:45:04.826Z,8.83
2023-12-26T14:47:36.701Z,8.81
2023-12-26T14:50:08.588Z,8.74
2023-12-26T14:52:40.424Z,8.69
2023-12-26T14:55:12.116Z,8.66
2023-12-26T14:57:44.424Z,8.62
2023-12-26T15:00:16.825Z,8.59
2023-12-26T15:02:49.330Z,8.57
2023-12-26T15:05:21.985Z,8.55
2023-12-26T15:07:53.925Z,8.54
2023-12-26T15:10:25.669Z,8.49
2023-12-26T15:12:57.760Z,8.45
2023-12-26T15:15:30.616Z,8.41
2023-12-26T15:18:02.982Z,8.37
2023-12-26T15:20:35.392Z,8.35
2023-12-26T15:23:08.266Z,8.34
2023-12-26T15:25:40.016Z,8.33
2023-12-26T15:28:11.911Z,8.30
2023-12-26T15:30:43.760Z,8.29
2023-12-26T15:33:15.965Z,8.29
2023-12-26T15:35:48.007Z,8.28
2023-12-26T15:38:20.155Z,8.27
2023-12-26T15:40:52.350Z,8.25
2023-12-26T15:43:24.133Z,8.24
2023-12-26T15:45:56.308Z,8.24
2023-12-26T15:48:28.218Z,8.23
2023-12-26T15:51:00.344Z,8.19
2023-12-26T15:53:32.259Z,8.14
2023-12-26T15:56:05.842Z,8.10
2023-12-26T15:58:37.631Z,8.05
2023-12-26T16:01:10.467Z,8.03
2023-12-26T16:03:42.616Z,7.97
2023-12-26T16:06:21.472Z,7.91
2023-12-26T16:08:53.438Z,7.87
2023-12-26T16:11:25.459Z,7.82
2023-12-26T16:13:57.186Z,7.75
2023-12-26T16:16:29.002Z,7.70
2023-12-26T16:19:01.039Z,7.65
2023-12-26T16:21:33.185Z,7.62
2023-12-26T16:24:05.765Z,7.60
2023-12-26T16:26:39.913Z,7.57
2023-12-26T16:29:12.420Z,7.55
2023-12-26T16:31:46.530Z,7.53
2023-12-26T16:34:18.555Z,7.52
2023-12-26T16:36:51.290Z,7.51
2023-12-26T16:39:23.317Z,7.50
2023-12-26T16:42:09.087Z,7.48
2023-12-26T16:44:45.872Z,7.46
2023-12-26T16:47:17.994Z,7.44
2023-12-26T16:49:49.741Z,7.42
2023-12-26T16:52:21.570Z,7.40
2023-12-26T16:54:55.773Z,7.41
2023-12-26T16:57:28.413Z,7.40
2023-12-26T17:00:00.595Z,7.42
2023-12-26T17:02:33.406Z,7.45
2023-12-26T17:05:07.702Z,7.48
2023-12-26T17:07:39.372Z,7.50
2023-12-26T17:10:11.942Z,7.52
2023-12-26T17:12:43.825Z,7.54
2023-12-26T17:15:15.851Z,7.56
2023-12-26T17:17:47.772Z,7.56
2023-12-26T17:20:19.768Z,7.55
2023-12-26T17:22:51.696Z,7.53
2023-12-26T17:25:23.436Z,7.50
2023-12-26T17:27:55.278Z,7.48
2023-12-26T17:30:28.830Z,7.45
2023-12-26T17:33:01.344Z,7.43
2023-12-26T17:35:33.358Z,7.39
2023-12-26T17:38:05.720Z,7.37
2023-12-26T17:40:37.570Z,7.35
2023-12-26T17:43:09.312Z,7.35
2023-12-26T17:45:41.109Z,7.33
2023-12-26T17:48:13.352Z,7.32
2023-12-26T17:50:45.424Z,7.31
2023-12-26T17:53:19.345Z,7.30
2023-12-26T17:55:51.890Z,7.30
2023-12-26T17:58:29.498Z,7.29
2023-12-26T18:01:01.477Z,7.31
2023-12-26T18:03:34.342Z,7.32
2023-12-26T18:06:12.016Z,7.32
2023-12-26T18:08:43.899Z,7.32
2023-12-26T18:11:18.028Z,7.33
2023-12-26T18:13:49.932Z,7.33
2023-12-26T18:16:21.751Z,7.32
2023-12-26T18:18:53.717Z,7.33
2023-12-26T18:21:29.895Z,7.32
2023-12-26T18:24:01.850Z,7.31
2023-12-26T18:26:33.826Z,7.31
2023-12-26T18:29:05.647Z,7.30
2023-12-26T18:31:37.496Z,7.29
2023-12-26T18:34:09.466Z,7.29
2023-12-26T18:36:43.844Z,7.29
2023-12-26T18:39:15.567Z,7.30
2023-12-26T18:41:47.471Z,7.30
2023-12-26T18:44:19.280Z,7.31
2023-12-26T18:46:51.443Z,7.32
2023-12-26T18:49:23.400Z,7.33
2023-12-26T18:51:56.426Z,7.35
2023-12-26T18:54:28.572Z,7.37
2023-12-26T18:57:00.347Z,7.37
2023-12-26T18:59:32.168Z,7.37
2023-12-26T19:02:04.155Z,7.36
2023-12-26T19:04:36.038Z,7.36
2023-12-26T19:07:08.139Z,7.35
2023-12-26T19:09:40.220Z,7.35
2023-12-26T19:12:12.201Z,7.34
2023-12-26T19:14:44.180Z,7.34
2023-12-26T19:17:18.309Z,7.33
2023-12-26T19:19:48.615Z,7.33
2023-12-26T19:22:20.478Z,7.32
2023-12-26T19:24:52.446Z,7.31
2023-12-26T19:27:24.438Z,7.31
2023-12-26T19:29:56.293Z,7.31
2023-12-26T19:32:28.314Z,7.30
2023-12-26T19:35:00.629Z,7.30
2023-12-26T19:37:34.410Z,7.30
2023-12-26T19:40:07.563Z,7.29
2023-12-26T19:42:39.890Z,7.29
2023-12-26T19:45:12.177Z,7.28
2023-12-26T19:47:44.391Z,7.27
2023-12-26T19:50:16.943Z,7.26
2023-12-26T19:52:48.785Z,7.25
2023-12-26T19:55:20.592Z,7.24
2023-12-26T19:57:52.821Z,7.22
2023-12-26T20:00:26.100Z,7.21
2023-12-26T20:03:02.527Z,7.19
2023-12-26T20:05:37.650Z,7.17
2023-12-26T20:08:09.854Z,7.15
2023-12-26T20:10:41.770Z,7.13
2023-12-26T20:13:16.328Z,7.10
2023-12-26T20:15:49.945Z,7.08
2023-12-26T20:18:22.058Z,7.06
2023-12-26T20:20:54.097Z,7.04
2023-12-26T20:23:25.842Z,7.02
2023-12-26T20:25:57.809Z,7.02
2023-12-26T20:28:29.525Z,7.01
2023-12-26T20:31:01.396Z,7.02
2023-12-26T20:33:33.407Z,7.01
2023-12-26T20:36:05.738Z,7.01
2023-12-26T20:38:37.598Z,7.02
2023-12-26T20:41:10.297Z,7.01
2023-12-26T20:43:42.202Z,7.02
2023-12-26T20:46:15.035Z,7.04
2023-12-26T20:48:46.910Z,7.04
2023-12-26T20:51:18.813Z,7.04
2023-12-26T20:53:51.404Z,7.05
2023-12-26T20:56:23.181Z,7.06
2023-12-26T20:58:54.925Z,7.07
2023-12-26T21:01:27.084Z,7.08
2023-12-26T21:03:59.072Z,7.10
2023-12-26T21:06:31.029Z,7.10
2023-12-26T21:09:02.936Z,7.10
2023-12-26T21:11:34.722Z,7.09
2023-12-26T21:14:06.624Z,7.09
2023-12-26T21:16:38.912Z,7.10
2023-12-26T21:19:12.359Z,7.10
2023-12-26T21:21:44.404Z,7.10
2023-12-26T21:24:16.315Z,7.09
2023-12-26T21:26:50.992Z,7.10
2023-12-26T21:29:23.029Z,7.11
2023-12-26T21:31:54.782Z,7.11
2023-12-26T21:34:26.707Z,7.12
2023-12-26T21:36:58.994Z,7.13
2023-12-26T21:39:31.343Z,7.13
2023-12-26T21:42:04.485Z,7.13
2023-12-26T21:44:40.301Z,7.12
2023-12-26T21:47:13.037Z,7.12
2023-12-26T21:49:46.024Z,7.11
2023-12-26T21:52:18.273Z,7.10
2023-12-26T21:54:50.179Z,7.08
2023-12-26T21:57:22.042Z,7.06
2023-12-26T21:59:54.336Z,7.04
2023-12-26T22:02:26.120Z,7.00
2023-12-26T22:04:57.939Z,6.97
2023-12-26T22:07:29.725Z,6.94
2023-12-26T22:10:01.536Z,6.93
2023-12-26T22:12:33.483Z,6.92
2023-12-26T22:15:13.667Z,6.90
2023-12-26T22:17:52.833Z,6.89
2023-12-26T22:20:24.710Z,6.87
2023-12-26T22:22:56.543Z,6.82
2023-12-26T22:25:28.281Z,6.80
2023-12-26T22:28:00.968Z,6.75
2023-12-26T22:30:33.732Z,6.70
2023-12-26T22:33:06.387Z,6.65
2023-12-26T22:35:40.448Z,6.60
2023-12-26T22:38:10.788Z,6.53
2023-12-26T22:40:42.788Z,6.46
2023-12-26T22:43:14.658Z,6.38
2023-12-26T22:45:46.674Z,6.32
2023-12-26T22:48:18.622Z,6.27
2023-12-26T22:50:50.341Z,6.22
2023-12-26T22:53:22.313Z,6.19
2023-12-26T22:55:54.287Z,6.16
2023-12-26T22:58:26.232Z,6.14
2023-12-26T23:00:58.078Z,6.12
2023-12-26T23:03:30.587Z,6.10
2023-12-26T23:06:03.739Z,6.09
2023-12-26T23:08:36.093Z,6.08
2023-12-26T23:11:07.894Z,6.08
2023-12-26T23:13:39.700Z,6.08
2023-12-26T23:16:11.780Z,6.06
2023-12-26T23:18:43.696Z,6.05
2023-12-26T23:21:21.137Z,6.03
2023-12-26T23:23:53.115Z,6.02
2023-12-26T23:26:25.685Z,6.02
2023-12-26T23:28:57.507Z,6.01
2023-12-26T23:31:32.173Z,6.01
2023-12-26T23:34:04.612Z,6.03
2023-12-26T23:36:38.937Z,6.04
2023-12-26T23:39:10.709Z,6.04
2023-12-26T23:41:42.911Z,6.02
2023-12-26T23:44:15.101Z,6.01
2023-12-26T23:46:47.285Z,5.99
2023-12-26T23:49:19.404Z,5.98
2023-12-26T23:51:52.068Z,5.97
2023-12-26T23:54:24.688Z,5.96
2023-12-26T23:56:56.523Z,5.94
2023-12-26T23:59:28.314Z,5.93
